createdAt,value
2023-03-17T00:01:16.932Z,3.23
2023-03-17T00:04:38.512Z,3.20
2023-03-17T00:08:05.508Z,3.03
2023-03-17T00:11:29.001Z,3.27
2023-03-17T00:14:50.322Z,3.33
2023-03-17T00:18:14.984Z,3.40
2023-03-17T00:21:36.743Z,3.87
2023-03-17T00:24:58.514Z,3.87
2023-03-17T00:28:23.273Z,3.90
2023-03-17T00:31:46.037Z,3.80
2023-03-17T00:35:16.514Z,4.37
2023-03-17T00:38:38.789Z,3.97
2023-03-17T00:42:00.160Z,3.80
2023-03-17T00:45:24.061Z,3.93
2023-03-17T00:48:46.776Z,3.47
2023-03-17T00:52:09.658Z,4.00
2023-03-17T00:55:31.080Z,3.80
2023-03-17T00:58:52.406Z,3.83
2023-03-17T01:02:15.540Z,4.33
2023-03-17T01:05:37.898Z,4.10
2023-03-17T01:08:59.468Z,4.00
2023-03-17T01:12:21.439Z,3.73
2023-03-17T01:15:46.248Z,4.43
2023-03-17T01:19:10.927Z,4.63
2023-03-17T01:22:32.674Z,4.27
2023-03-17T01:25:54.490Z,4.37
2023-03-17T01:29:16.499Z,3.87
2023-03-17T01:32:38.178Z,4.67
2023-03-17T01:36:01.300Z,4.30
2023-03-17T01:39:23.060Z,4.53
2023-03-17T01:42:48.567Z,4.53
2023-03-17T01:46:20.732Z,4.47
2023-03-17T01:49:43.217Z,5.00
2023-03-17T01:53:06.564Z,4.77
2023-03-17T01:56:28.373Z,5.00
2023-03-17T01:59:53.725Z,4.40
2023-03-17T02:03:15.748Z,4.23
2023-03-17T02:06:47.398Z,4.90
2023-03-17T02:10:21.422Z,4.20
2023-03-17T02:13:44.761Z,4.67
2023-03-17T02:17:09.162Z,4.60
2023-03-17T02:21:04.179Z,4.57
2023-03-17T02:24:33.173Z,4.43
2023-03-17T02:27:59.407Z,4.83
2023-03-17T02:31:21.933Z,4.73
2023-03-17T02:34:47.012Z,4.47
2023-03-17T02:38:08.629Z,5.20
2023-03-17T02:41:31.711Z,4.67
2023-03-17T02:44:54.974Z,4.67
2023-03-17T02:48:16.798Z,4.23
2023-03-17T02:51:38.808Z,4.50
2023-03-17T02:55:00.306Z,4.67
2023-03-17T02:58:23.699Z,4.63
2023-03-17T03:01:48.530Z,4.47
2023-03-17T03:05:11.317Z,4.87
2023-03-17T03:08:32.838Z,5.17
2023-03-17T03:11:54.608Z,5.73
2023-03-17T03:15:17.363Z,5.07
2023-03-17T03:18:38.956Z,5.70
2023-03-17T03:22:00.807Z,4.37
2023-03-17T03:25:22.472Z,5.30
2023-03-17T03:28:44.180Z,5.07
2023-03-17T03:32:08.270Z,5.00
2023-03-17T03:35:30.594Z,6.50
2023-03-17T03:38:52.163Z,5.53
2023-03-17T03:42:13.862Z,5.87
2023-03-17T03:45:35.830Z,5.23
2023-03-17T03:48:58.544Z,5.27
2023-03-17T03:52:20.096Z,5.70
2023-03-17T03:55:42.077Z,5.50
2023-03-17T03:59:04.024Z,5.53
2023-03-17T04:02:25.797Z,5.47
2023-03-17T04:05:49.076Z,5.53
2023-03-17T04:09:10.770Z,6.20
2023-03-17T04:12:32.414Z,5.40
2023-03-17T04:15:54.282Z,5.60
2023-03-17T04:19:16.326Z,5.67
2023-03-17T04:22:39.252Z,5.20
2023-03-17T04:26:00.939Z,4.97
2023-03-17T04:29:22.398Z,5.30
2023-03-17T04:32:44.969Z,5.77
2023-03-17T04:36:07.750Z,5.60
2023-03-17T04:39:30.512Z,5.87
2023-03-17T04:42:51.690Z,5.80
2023-03-17T04:46:13.703Z,5.67
2023-03-17T04:49:35.454Z,5.60
2023-03-17T04:52:57.294Z,5.77
2023-03-17T04:56:21.042Z,6.30
2023-03-17T04:59:42.841Z,6.03
2023-03-17T05:03:07.118Z,7.13
2023-03-17T05:06:33.021Z,6.53
2023-03-17T05:09:54.449Z,6.50
2023-03-17T05:13:18.836Z,7.20
2023-03-17T05:16:40.788Z,6.60
2023-03-17T05:20:02.530Z,7.73
2023-03-17T05:23:24.319Z,6.87
2023-03-17T05:26:46.026Z,7.30
2023-03-17T05:30:10.906Z,7.50
2023-03-17T05:33:32.984Z,7.60
2023-03-17T05:36:54.745Z,6.93
2023-03-17T05:40:16.806Z,7.30
2023-03-17T05:43:38.677Z,7.73
2023-03-17T05:47:02.004Z,7.47
2023-03-17T05:50:23.846Z,7.53
2023-03-17T05:53:45.838Z,7.13
2023-03-17T05:57:07.741Z,7.10
2023-03-17T06:00:29.743Z,7.33
2023-03-17T06:03:52.524Z,6.93
2023-03-17T06:07:14.458Z,7.37
2023-03-17T06:10:36.293Z,8.00
2023-03-17T06:13:57.717Z,7.27
2023-03-17T06:17:19.488Z,7.23
2023-03-17T06:20:42.889Z,6.63
2023-03-17T06:24:04.695Z,6.50
2023-03-17T06:27:26.471Z,6.57
2023-03-17T06:30:47.856Z,6.30
2023-03-17T06:34:09.920Z,6.13
2023-03-17T06:37:33.432Z,5.87
2023-03-17T06:40:54.974Z,7.00
2023-03-17T06:44:16.235Z,6.33
2023-03-17T06:47:38.236Z,5.70
2023-03-17T06:50:59.943Z,6.10
2023-03-17T06:54:24.683Z,6.10
2023-03-17T06:57:48.357Z,5.70
2023-03-17T07:01:10.633Z,5.50
2023-03-17T07:04:32.610Z,5.77
2023-03-17T07:07:54.461Z,5.67
2023-03-17T07:11:17.557Z,5.57
2023-03-17T07:14:39.084Z,6.43
2023-03-17T07:18:00.965Z,5.40
2023-03-17T07:21:22.132Z,5.73
2023-03-17T07:24:43.669Z,6.00
2023-03-17T07:28:06.616Z,5.77
2023-03-17T07:31:28.332Z,5.27
2023-03-17T07:34:49.950Z,5.60
2023-03-17T07:38:13.020Z,5.10
2023-03-17T07:41:34.862Z,5.43
2023-03-17T07:44:57.813Z,5.40
2023-03-17T07:48:19.704Z,5.40
2023-03-17T07:51:43.247Z,5.20
2023-03-17T07:55:05.338Z,5.67
2023-03-17T07:58:27.094Z,5.20
2023-03-17T08:01:50.645Z,5.00
2023-03-17T08:05:13.318Z,5.40
2023-03-17T08:08:35.203Z,5.10
2023-03-17T08:11:57.149Z,5.83
2023-03-17T08:15:18.940Z,5.27
2023-03-17T08:18:42.064Z,5.13
2023-03-17T08:22:03.948Z,5.23
2023-03-17T08:25:25.827Z,5.20
2023-03-17T08:28:48.678Z,4.77
2023-03-17T08:32:10.619Z,4.30
2023-03-17T08:35:34.359Z,4.40
2023-03-17T08:38:56.713Z,4.77
2023-03-17T08:42:18.544Z,5.17
2023-03-17T08:45:40.731Z,4.70
2023-03-17T08:49:03.350Z,4.50
2023-03-17T08:52:26.103Z,4.80
2023-03-17T08:55:47.717Z,4.70
2023-03-17T08:59:09.761Z,5.87
2023-03-17T09:02:31.332Z,5.13
2023-03-17T09:05:53.047Z,4.67
2023-03-17T09:09:16.827Z,5.03
2023-03-17T09:12:38.770Z,4.93
2023-03-17T09:16:01.498Z,4.70
2023-03-17T09:19:23.851Z,4.17
2023-03-17T09:22:45.272Z,4.57
2023-03-17T09:26:09.039Z,4.43
2023-03-17T09:29:30.969Z,4.17
2023-03-17T09:32:52.724Z,4.90
2023-03-17T09:36:14.556Z,4.43
2023-03-17T09:39:36.514Z,5.07
2023-03-17T09:43:08.386Z,4.17
2023-03-17T09:46:42.860Z,4.10
2023-03-17T09:50:12.680Z,4.33
2023-03-17T09:53:37.611Z,4.37
2023-03-17T09:57:06.168Z,4.33
2023-03-17T10:00:31.203Z,3.87
2023-03-17T10:03:53.591Z,4.10
2023-03-17T10:07:18.924Z,3.97
2023-03-17T10:10:46.491Z,4.30
2023-03-17T10:14:19.228Z,4.17
2023-03-17T10:17:43.291Z,4.70
2023-03-17T10:21:07.502Z,4.27
2023-03-17T10:24:32.618Z,4.17
2023-03-17T10:28:00.803Z,4.10
2023-03-17T10:31:29.588Z,4.67
2023-03-17T10:34:52.386Z,4.15
2023-03-17T10:38:17.748Z,4.47
2023-03-17T10:41:42.088Z,3.97
2023-03-17T10:45:16.066Z,3.88
2023-03-17T10:48:39.845Z,3.88
2023-03-17T10:52:08.646Z,4.03
2023-03-17T10:55:33.084Z,4.45
2023-03-17T10:58:56.979Z,3.83
2023-03-17T11:02:24.088Z,4.13
2023-03-17T11:05:56.246Z,3.67
2023-03-17T11:09:21.613Z,3.67
2023-03-17T11:12:44.035Z,4.00
2023-03-17T11:16:17.188Z,3.72
2023-03-17T11:19:51.009Z,4.05
2023-03-17T11:23:27.585Z,3.85
2023-03-17T11:27:01.240Z,3.88
2023-03-17T11:30:32.779Z,4.20
2023-03-17T11:34:05.301Z,3.60
2023-03-17T11:37:42.977Z,3.55
2023-03-17T11:41:34.919Z,3.90
2023-03-17T11:45:18.175Z,3.40
2023-03-17T11:48:49.780Z,3.53
2023-03-17T11:52:21.967Z,3.47
2023-03-17T11:55:46.968Z,3.70
2023-03-17T11:59:18.254Z,4.03
2023-03-17T12:02:45.116Z,3.88
2023-03-17T12:06:11.938Z,3.92
2023-03-17T12:09:40.868Z,3.63
2023-03-17T12:13:08.381Z,3.92
2023-03-17T12:16:37.264Z,3.30
2023-03-17T12:20:09.632Z,3.50
2023-03-17T12:23:38.177Z,3.47
2023-03-17T12:27:05.002Z,3.33
2023-03-17T12:30:31.915Z,4.15
2023-03-17T12:34:01.740Z,2.90
2023-03-17T12:37:27.705Z,3.50
2023-03-17T12:41:15.601Z,3.25
2023-03-17T12:44:53.957Z,3.17
2023-03-17T12:48:58.985Z,3.40
2023-03-17T12:52:38.269Z,3.50
2023-03-17T12:56:04.501Z,3.25
2023-03-17T12:59:27.054Z,3.20
2023-03-17T13:02:52.108Z,3.35
2023-03-17T13:06:20.899Z,3.38
2023-03-17T13:09:50.731Z,3.65
2023-03-17T13:13:23.293Z,3.30
2023-03-17T13:16:47.823Z,3.10
2023-03-17T13:20:17.726Z,3.63
2023-03-17T13:23:42.806Z,3.53
2023-03-17T13:27:05.986Z,2.63
2023-03-17T13:30:45.943Z,3.08
2023-03-17T13:34:16.272Z,2.83
2023-03-17T13:37:53.204Z,2.90
2023-03-17T13:41:38.490Z,3.10
2023-03-17T13:45:19.716Z,3.30
2023-03-17T13:48:41.843Z,2.90
2023-03-17T13:52:09.137Z,2.92
2023-03-17T13:55:40.923Z,2.67
2023-03-17T13:59:13.671Z,3.70
2023-03-17T14:02:40.923Z,2.95
2023-03-17T14:06:06.689Z,2.97
2023-03-17T14:09:36.882Z,3.20
2023-03-17T14:13:04.777Z,4.00
2023-03-17T14:16:31.022Z,2.95
2023-03-17T14:20:08.428Z,2.63
2023-03-17T14:23:31.038Z,2.75
2023-03-17T14:26:54.032Z,2.80
2023-03-17T14:30:21.259Z,2.80
2023-03-17T14:33:43.125Z,3.00
2023-03-17T14:37:06.323Z,2.67
2023-03-17T14:40:32.329Z,2.70
2023-03-17T14:43:58.620Z,2.50
2023-03-17T14:47:24.228Z,3.30
2023-03-17T14:50:52.970Z,2.60
2023-03-17T14:54:19.154Z,3.13
2023-03-17T14:57:40.818Z,3.03
2023-03-17T15:01:05.896Z,2.80
2023-03-17T15:04:28.920Z,2.85
2023-03-17T15:07:50.420Z,2.95
2023-03-17T15:11:21.289Z,3.15
2023-03-17T15:14:44.648Z,2.95
2023-03-17T15:18:12.320Z,2.97
2023-03-17T15:21:36.824Z,2.33
2023-03-17T15:25:02.871Z,2.75
2023-03-17T15:28:26.790Z,2.78
2023-03-17T15:31:48.474Z,2.65
2023-03-17T15:35:13.571Z,2.72
2023-03-17T15:38:38.890Z,2.35
2023-03-17T15:42:00.924Z,2.40
2023-03-17T15:45:23.642Z,2.60
2023-03-17T15:48:44.836Z,2.75
2023-03-17T15:52:12.456Z,2.55
2023-03-17T15:55:33.692Z,3.00
2023-03-17T15:58:55.386Z,2.50
2023-03-17T16:02:27.810Z,2.53
2023-03-17T16:05:49.227Z,3.30
2023-03-17T16:09:16.181Z,2.65
2023-03-17T16:12:37.965Z,2.88
2023-03-17T16:16:05.521Z,3.15
2023-03-17T16:19:29.411Z,2.97
2023-03-17T16:22:51.639Z,2.58
2023-03-17T16:26:15.990Z,2.50
2023-03-17T16:29:38.096Z,2.85
2023-03-17T16:33:05.035Z,3.20
2023-03-17T16:36:27.863Z,3.08
2023-03-17T16:39:52.186Z,3.33
2023-03-17T16:43:25.610Z,3.35
2023-03-17T16:46:48.603Z,2.80
2023-03-17T16:50:16.532Z,3.33
2023-03-17T16:53:39.549Z,3.10
2023-03-17T16:57:01.445Z,2.70
2023-03-17T17:00:25.413Z,3.00
2023-03-17T17:03:47.139Z,3.08
2023-03-17T17:07:08.630Z,3.03
2023-03-17T17:10:34.113Z,2.65
2023-03-17T17:13:55.729Z,2.60
2023-03-17T17:17:17.501Z,2.80
2023-03-17T17:20:40.539Z,2.95
2023-03-17T17:24:02.011Z,3.00
2023-03-17T17:27:25.968Z,2.78
2023-03-17T17:30:48.109Z,3.65
2023-03-17T17:34:09.682Z,3.45
2023-03-17T17:37:32.125Z,5.55
2023-03-17T17:40:55.556Z,8.57
2023-03-17T17:44:19.031Z,6.72
2023-03-17T17:47:40.822Z,4.05
2023-03-17T17:51:02.460Z,3.72
2023-03-17T17:54:23.858Z,3.38
2023-03-17T17:57:45.959Z,4.93
2023-03-17T18:01:09.219Z,3.65
2023-03-17T18:04:30.854Z,3.85
2023-03-17T18:07:52.820Z,3.60
2023-03-17T18:11:14.349Z,4.38
2023-03-17T18:14:36.000Z,4.20
2023-03-17T18:17:58.826Z,4.13
2023-03-17T18:21:20.327Z,3.58
2023-03-17T18:24:42.105Z,3.53
2023-03-17T18:28:03.433Z,3.75
2023-03-17T18:31:29.211Z,3.58
2023-03-17T18:34:52.133Z,3.28
2023-03-17T18:38:13.687Z,3.28
2023-03-17T18:41:35.940Z,3.50
2023-03-17T18:44:57.755Z,4.03
2023-03-17T18:48:20.380Z,3.85
2023-03-17T18:51:43.236Z,3.75
2023-03-17T18:55:06.614Z,4.93
2023-03-17T18:58:28.890Z,3.72
2023-03-17T19:01:50.471Z,4.18
2023-03-17T19:05:12.970Z,5.35
2023-03-17T19:08:36.110Z,5.40
2023-03-17T19:11:57.706Z,4.80
2023-03-17T19:15:20.730Z,4.13
2023-03-17T19:18:42.862Z,3.92
2023-03-17T19:22:06.244Z,4.60
2023-03-17T19:25:30.021Z,4.50
2023-03-17T19:28:52.296Z,3.80
2023-03-17T19:32:14.408Z,3.90
2023-03-17T19:35:35.918Z,4.30
2023-03-17T19:38:57.455Z,4.60
2023-03-17T19:42:20.433Z,4.40
2023-03-17T19:45:42.549Z,4.40
2023-03-17T19:49:04.669Z,5.28
2023-03-17T19:52:26.401Z,4.88
2023-03-17T19:55:47.679Z,4.70
2023-03-17T19:59:10.949Z,4.53
2023-03-17T20:02:32.401Z,5.25
2023-03-17T20:05:54.263Z,4.85
2023-03-17T20:09:16.052Z,5.30
2023-03-17T20:12:38.479Z,4.50
2023-03-17T20:16:01.835Z,4.93
2023-03-17T20:19:23.910Z,4.75
2023-03-17T20:22:46.684Z,4.47
2023-03-17T20:26:09.265Z,4.43
2023-03-17T20:29:31.516Z,5.00
2023-03-17T20:32:55.339Z,4.47
2023-03-17T20:36:17.189Z,4.68
2023-03-17T20:39:38.980Z,4.88
2023-03-17T20:43:01.057Z,4.90
2023-03-17T20:46:23.864Z,5.15
2023-03-17T20:49:47.905Z,5.93
2023-03-17T20:53:10.348Z,9.43
2023-03-17T20:56:33.801Z,7.63
2023-03-17T20:59:56.027Z,7.90
2023-03-17T21:03:18.019Z,8.40
2023-03-17T21:06:41.555Z,8.10
2023-03-17T21:10:03.125Z,8.23
2023-03-17T21:13:24.849Z,7.47
2023-03-17T21:16:47.271Z,7.40
2023-03-17T21:20:10.435Z,8.02
2023-03-17T21:23:33.506Z,8.23
2023-03-17T21:26:56.077Z,8.82
2023-03-17T21:30:18.466Z,9.45
2023-03-17T21:33:41.934Z,8.05
2023-03-17T21:37:03.853Z,7.32
2023-03-17T21:40:27.699Z,6.87
2023-03-17T21:43:49.227Z,7.05
2023-03-17T21:47:11.840Z,7.00
2023-03-17T21:50:34.557Z,7.07
2023-03-17T21:53:56.201Z,7.05
2023-03-17T21:57:19.438Z,7.20
2023-03-17T22:00:45.623Z,6.20
2023-03-17T22:04:08.377Z,6.77
2023-03-17T22:07:30.237Z,8.07
2023-03-17T22:10:52.015Z,9.60
2023-03-17T22:14:19.788Z,7.60
2023-03-17T22:17:41.115Z,7.87
2023-03-17T22:21:02.742Z,7.33
2023-03-17T22:24:25.629Z,8.03
2023-03-17T22:27:47.494Z,8.50
2023-03-17T22:31:15.731Z,7.70
2023-03-17T22:34:38.562Z,7.13
2023-03-17T22:38:00.187Z,6.83
2023-03-17T22:41:24.275Z,7.10
2023-03-17T22:44:46.271Z,8.07
2023-03-17T22:48:10.908Z,7.77
2023-03-17T22:51:32.868Z,8.03
2023-03-17T22:54:54.748Z,7.73
2023-03-17T22:58:16.167Z,7.83
2023-03-17T23:01:38.109Z,7.57
2023-03-17T23:05:00.749Z,7.33
2023-03-17T23:08:22.849Z,7.80
2023-03-17T23:11:44.368Z,7.93
2023-03-17T23:15:07.317Z,8.30
2023-03-17T23:18:28.837Z,7.70
2023-03-17T23:21:51.871Z,7.10
2023-03-17T23:25:13.773Z,7.23
2023-03-17T23:28:36.074Z,6.87
2023-03-17T23:31:58.637Z,7.40
2023-03-17T23:35:20.652Z,7.77
2023-03-17T23:38:44.582Z,7.57
2023-03-17T23:42:06.455Z,7.33
2023-03-17T23:45:28.171Z,7.40
2023-03-17T23:48:50.263Z,7.37
2023-03-17T23:52:11.903Z,7.63
2023-03-17T23:55:35.082Z,7.03
2023-03-17T23:58:56.791Z,7.03
